Time,TemperatureF,DewpointF,PressureIn,WindDirection,WindDirectionDegrees,WindSpeedMPH,WindSpeedGustMPH,Humidity,HourlyPrecipIn,Conditions,Clouds,dailyrainin,SoftwareType,DateUTC
2013-03-23 00:00:00,27.7,10.2,29.69,NNW,337,2.5,3.4,48,0.00,,,0.00,WUHU21623XXSP,2013-03-23 04:00:00,
2013-03-23 00:05:00,27.5,10.0,29.69,NNW,337,1.6,3.4,48,0.00,,,0.00,WUHU21623XXSP,2013-03-23 04:05:00,
2013-03-23 00:10:00,27.1,9.7,29.69,North,0,1.8,2.0,48,0.00,,,0.00,WUHU21623XXSP,2013-03-23 04:10:00,
2013-03-23 00:15:00,27.0,9.6,29.69,North,0,1.3,2.0,48,0.00,,,0.00,WUHU21623XXSP,2013-03-23 04:15:00,
2013-03-23 00:20:00,26.6,9.2,29.69,North,0,1.2,1.6,48,0.00,,,0.00,WUHU21623XXSP,2013-03-23 04:20:00,
2013-03-23 00:25:00,26.1,8.7,29.69,North,0,1.1,1.3,48,0.00,,,0.00,WUHU21623XXSP,2013-03-23 04:25:00,
2013-03-23 00:30:00,25.7,8.4,29.69,North,0,1.1,1.2,48,0.00,,,0.00,WUHU21623XXSP,2013-03-23 04:30:00,
2013-03-23 00:35:00,25.9,8.6,29.69,North,0,1.1,1.1,48,0.00,,,0.00,WUHU21623XXSP,2013-03-23 04:35:00,
2013-03-23 00:40:00,25.5,8.2,29.70,North,0,1.1,1.1,48,0.00,,,0.00,WUHU21623XXSP,2013-03-23 04:40:00,
2013-03-23 00:45:00,25.3,8.0,29.70,North,0,1.1,1.1,48,0.00,,,0.00,WUHU21623XXSP,2013-03-23 04:45:00,
2013-03-23 00:50:00,25.0,7.7,29.70,North,0,0.0,1.1,48,0.00,,,0.00,WUHU21623XXSP,2013-03-23 04:50:00,
2013-03-23 00:55:00,24.4,7.2,29.70,North,0,0.0,1.1,48,0.00,,,0.00,WUHU21623XXSP,2013-03-23 04:55:00,
2013-03-23 01:00:00,24.3,7.1,29.71,North,0,0.0,0.0,48,0.00,,,0.00,WUHU21623XXSP,2013-03-23 05:00:00,
2013-03-23 01:06:00,23.9,6.7,29.71,North,0,0.0,0.0,48,0.00,,,0.00,WUHU21623XXSP,2013-03-23 05:06:00,
2013-03-23 01:11:00,23.5,6.3,29.71,North,0,0.0,0.0,48,0.00,,,0.00,WUHU21623XXSP,2013-03-23 05:11:00,
2013-03-23 01:16:00,23.4,6.3,29.70,North,0,0.0,0.0,48,0.00,,,0.00,WUHU21623XXSP,2013-03-23 05:16:00,
2013-03-23 01:21:00,23.4,6.3,29.71,North,0,0.0,0.0,48,0.00,,,0.00,WUHU21623XXSP,2013-03-23 05:21:00,
2013-03-23 01:26:00,23.0,5.9,29.71,North,0,0.0,0.0,48,0.00,,,0.00,WUHU21623XXSP,2013-03-23 05:26:00,
2013-03-23 01:31:00,22.8,5.7,29.71,North,0,0.0,0.0,48,0.00,,,0.00,WUHU21623XXSP,2013-03-23 05:31:00,
2013-03-23 01:36:00,22.6,5.5,29.71,North,0,0.0,0.0,48,0.00,,,0.00,WUHU21623XXSP,2013-03-23 05:36:00,
2013-03-23 01:41:00,22.6,5.5,29.71,North,0,0.0,0.0,48,0.00,,,0.00,WUHU21623XXSP,2013-03-23 05:41:00,
2013-03-23 01:46:00,22.5,5.4,29.70,North,0,0.0,0.0,48,0.00,,,0.00,WUHU21623XXSP,2013-03-23 05:46:00,
2013-03-23 01:51:00,22.5,5.4,29.71,North,0,0.0,0.0,48,0.00,,,0.00,WUHU21623XXSP,2013-03-23 05:51:00,
2013-03-23 01:56:00,22.5,5.4,29.71,North,0,0.0,0.0,48,0.00,,,0.00,WUHU21623XXSP,2013-03-23 05:56:00,
2013-03-23 02:01:00,22.3,5.2,29.71,North,0,0.0,0.0,48,0.00,,,0.00,WUHU21623XXSP,2013-03-23 06:01:00,
2013-03-23 02:06:00,22.1,5.1,29.71,North,0,0.0,0.0,48,0.00,,,0.00,WUHU21623XXSP,2013-03-23 06:06:00,
2013-03-23 02:11:00,21.9,4.9,29.71,North,0,0.0,0.0,48,0.00,,,0.00,WUHU21623XXSP,2013-03-23 06:11:00,
2013-03-23 02:17:00,21.9,4.9,29.72,North,0,0.0,0.0,48,0.00,,,0.00,WUHU21623XXSP,2013-03-23 06:17:00,
2013-03-23 02:22:00,21.7,4.7,29.72,North,0,0.0,0.0,48,0.00,,,0.00,WUHU21623XXSP,2013-03-23 06:22:00,
2013-03-23 02:27:00,21.7,4.7,29.72,North,0,0.0,0.0,48,0.00,,,0.00,WUHU21623XXSP,2013-03-23 06:27:00,
2013-03-23 02:32:00,21.6,4.6,29.72,North,0,0.0,0.0,48,0.00,,,0.00,WUHU21623XXSP,2013-03-23 06:32:00,
2013-03-23 02:37:00,21.4,4.4,29.72,North,0,0.0,0.0,48,0.00,,,0.00,WUHU21623XXSP,2013-03-23 06:37:00,
2013-03-23 02:42:00,21.4,4.4,29.72,North,0,0.0,0.0,48,0.00,,,0.00,WUHU21623XXSP,2013-03-23 06:42:00,
2013-03-23 02:47:00,21.4,4.4,29.72,North,0,0.0,0.0,48,0.00,,,0.00,WUHU21623XXSP,2013-03-23 06:47:00,
2013-03-23 02:52:00,21.2,4.2,29.72,North,0,0.0,0.0,48,0.00,,,0.00,WUHU21623XXSP,2013-03-23 06:52:00,
2013-03-23 02:57:00,21.0,4.0,29.72,North,0,0.0,0.0,48,0.00,,,0.00,WUHU21623XXSP,2013-03-23 06:57:00,
2013-03-23 03:02:00,20.8,3.9,29.72,North,0,0.0,0.0,48,0.00,,,0.00,WUHU21623XXSP,2013-03-23 07:02:00,
2013-03-23 03:07:00,20.8,3.9,29.72,North,0,0.0,0.0,48,0.00,,,0.00,WUHU21623XXSP,2013-03-23 07:07:00,
2013-03-23 03:12:00,20.7,3.8,29.72,North,0,0.0,0.0,48,0.00,,,0.00,WUHU21623XXSP,2013-03-23 07:12:00,
2013-03-23 03:17:00,20.8,3.9,29.72,North,0,0.0,0.0,48,0.00,,,0.00,WUHU21623XXSP,2013-03-23 07:17:00,
2013-03-23 03:22:00,20.5,3.6,29.72,North,0,0.0,0.0,48,0.00,,,0.00,WUHU21623XXSP,2013-03-23 07:22:00,
2013-03-23 03:27:00,20.5,3.6,29.72,North,0,0.0,0.0,48,0.00,,,0.00,WUHU21623XXSP,2013-03-23 07:27:00,
2013-03-23 03:32:00,20.3,3.4,29.72,North,0,0.0,0.0,48,0.00,,,0.00,WUHU21623XXSP,2013-03-23 07:32:00,
2013-03-23 03:37:00,20.3,3.4,29.71,North,0,0.0,0.0,48,0.00,,,0.00,WUHU21623XXSP,2013-03-23 07:37:00,
2013-03-23 03:42:00,20.1,3.2,29.71,North,0,0.0,0.0,48,0.00,,,0.00,WUHU21623XXSP,2013-03-23 07:42:00,
2013-03-23 03:47:00,20.1,3.2,29.72,North,0,0.0,0.0,48,0.00,,,0.00,WUHU21623XXSP,2013-03-23 07:47:00,
2013-03-23 03:52:00,20.1,3.2,29.71,North,0,0.0,0.0,48,0.00,,,0.00,WUHU21623XXSP,2013-03-23 07:52:00,
2013-03-23 03:57:00,20.1,3.2,29.71,North,0,0.0,0.0,48,0.00,,,0.00,WUHU21623XXSP,2013-03-23 07:57:00,
2013-03-23 04:02:00,19.9,3.0,29.71,North,0,0.0,0.0,48,0.00,,,0.00,WUHU21623XXSP,2013-03-23 08:02:00,
2013-03-23 04:07:00,19.9,3.0,29.71,North,0,0.0,0.0,48,0.00,,,0.00,WUHU21623XXSP,2013-03-23 08:07:00,
2013-03-23 04:12:00,19.8,2.9,29.71,North,0,0.0,0.0,48,0.00,,,0.00,WUHU21623XXSP,2013-03-23 08:12:00,
2013-03-23 04:17:00,19.8,2.9,29.71,North,0,0.0,0.0,48,0.00,,,0.00,WUHU21623XXSP,2013-03-23 08:17:00,
2013-03-23 04:22:00,19.8,2.9,29.71,North,0,0.0,0.0,48,0.00,,,0.00,WUHU21623XXSP,2013-03-23 08:22:00,
2013-03-23 04:27:00,19.6,2.8,29.71,North,0,0.0,0.0,48,0.00,,,0.00,WUHU21623XXSP,2013-03-23 08:27:00,
2013-03-23 04:32:00,19.8,2.9,29.71,North,0,0.0,0.0,48,0.00,,,0.00,WUHU21623XXSP,2013-03-23 08:32:00,
2013-03-23 04:37:00,19.8,2.9,29.71,North,0,0.0,0.0,48,0.00,,,0.00,WUHU21623XXSP,2013-03-23 08:37:00,
2013-03-23 04:42:00,19.8,2.9,29.71,North,0,0.0,0.0,48,0.00,,,0.00,WUHU21623XXSP,2013-03-23 08:42:00,
2013-03-23 04:47:00,19.6,2.8,29.71,North,0,0.0,0.0,48,0.00,,,0.00,WUHU21623XXSP,2013-03-23 08:47:00,
2013-03-23 04:52:00,19.6,2.8,29.71,North,0,0.0,0.0,48,0.00,,,0.00,WUHU21623XXSP,2013-03-23 08:52:00,
2013-03-23 04:57:00,19.6,2.8,29.71,North,0,0.0,0.0,48,0.00,,,0.00,WUHU21623XXSP,2013-03-23 08:57:00,
2013-03-23 05:03:00,19.6,2.8,29.71,North,0,0.0,0.0,48,0.00,,,0.00,WUHU21623XXSP,2013-03-23 09:03:00,
2013-03-23 05:08:00,19.6,2.8,29.71,North,0,0.0,0.0,48,0.00,,,0.00,WUHU21623XXSP,2013-03-23 09:08:00,
2013-03-23 05:13:00,19.4,2.6,29.71,North,0,0.0,0.0,48,0.00,,,0.00,WUHU21623XXSP,2013-03-23 09:13:00,
2013-03-23 05:18:00,19.2,2.4,29.71,North,0,0.0,0.0,48,0.00,,,0.00,WUHU21623XXSP,2013-03-23 09:18:00,
2013-03-23 05:23:00,19.0,2.2,29.71,North,0,0.0,0.0,48,0.00,,,0.00,WUHU21623XXSP,2013-03-23 09:23:00,
2013-03-23 05:28:00,19.6,2.8,29.71,North,0,0.0,0.0,48,0.00,,,0.00,WUHU21623XXSP,2013-03-23 09:28:00,
2013-03-23 05:33:00,19.6,2.8,29.71,North,0,0.0,0.0,48,0.00,,,0.00,WUHU21623XXSP,2013-03-23 09:33:00,
2013-03-23 05:38:00,19.6,2.8,29.71,North,0,0.0,0.0,48,0.00,,,0.00,WUHU21623XXSP,2013-03-23 09:38:00,
2013-03-23 05:43:00,19.6,2.8,29.71,North,0,0.0,0.0,48,0.00,,,0.00,WUHU21623XXSP,2013-03-23 09:43:00,
2013-03-23 05:48:00,19.6,2.8,29.72,North,0,0.0,0.0,48,0.00,,,0.00,WUHU21623XXSP,2013-03-23 09:48:00,
2013-03-23 05:53:00,19.6,2.8,29.71,North,0,0.0,0.0,48,0.00,,,0.00,WUHU21623XXSP,2013-03-23 09:53:00,
2013-03-23 05:58:00,19.2,2.4,29.72,North,0,0.0,0.0,48,0.00,,,0.00,WUHU21623XXSP,2013-03-23 09:58:00,
2013-03-23 06:03:00,19.4,2.6,29.72,North,0,0.0,0.0,48,0.00,,,0.00,WUHU21623XXSP,2013-03-23 10:03:00,
2013-03-23 06:08:00,19.6,2.8,29.72,North,0,0.0,0.0,48,0.00,,,0.00,WUHU21623XXSP,2013-03-23 10:08:00,
2013-03-23 06:13:00,19.8,2.9,29.72,North,0,0.0,0.0,48,0.00,,,0.00,WUHU21623XXSP,2013-03-23 10:13:00,
2013-03-23 06:18:00,19.9,3.0,29.72,North,0,0.0,0.0,48,0.00,,,0.00,WUHU21623XXSP,2013-03-23 10:18:00,
2013-03-23 06:23:00,20.1,3.2,29.72,North,0,0.0,0.0,48,0.00,,,0.00,WUHU21623XXSP,2013-03-23 10:23:00,
2013-03-23 06:28:00,20.3,3.4,29.73,North,0,0.0,0.0,48,0.00,,,0.00,WUHU21623XXSP,2013-03-23 10:28:00,
2013-03-23 06:33:00,20.5,3.6,29.72,North,0,0.0,0.0,48,0.00,,,0.00,WUHU21623XXSP,2013-03-23 10:33:00,
2013-03-23 06:38:00,20.8,3.9,29.73,North,0,0.0,0.0,48,0.00,,,0.00,WUHU21623XXSP,2013-03-23 10:38:00,
2013-03-23 06:43:00,20.8,3.9,29.73,North,0,0.0,0.0,48,0.00,,,0.00,WUHU21623XXSP,2013-03-23 10:43:00,
2013-03-23 06:48:00,21.0,4.0,29.73,North,0,0.0,0.0,48,0.00,,,0.00,WUHU21623XXSP,2013-03-23 10:48:00,
2013-03-23 06:53:00,21.4,4.4,29.73,North,0,0.0,0.0,48,0.00,,,0.00,WUHU21623XXSP,2013-03-23 10:53:00,
2013-03-23 06:58:00,21.6,4.6,29.73,North,0,0.0,0.0,48,0.00,,,0.00,WUHU21623XXSP,2013-03-23 10:58:00,
2013-03-23 07:03:00,21.7,4.7,29.74,North,0,0.0,0.0,48,0.00,,,0.00,WUHU21623XXSP,2013-03-23 11:03:00,
2013-03-23 07:08:00,21.9,4.9,29.73,South,180,0.0,0.0,48,0.00,,,0.00,WUHU21623XXSP,2013-03-23 11:08:00,
2013-03-23 07:13:00,22.1,5.1,29.74,North,0,0.0,0.0,48,0.00,,,0.00,WUHU21623XXSP,2013-03-23 11:13:00,
2013-03-23 07:18:00,22.1,5.1,29.74,North,0,0.0,0.0,48,0.00,,,0.00,WUHU21623XXSP,2013-03-23 11:18:00,
2013-03-23 07:23:00,22.3,5.2,29.74,North,0,0.0,0.0,48,0.00,,,0.00,WUHU21623XXSP,2013-03-23 11:23:00,
2013-03-23 07:28:00,22.5,5.4,29.74,North,0,0.0,0.0,48,0.00,,,0.00,WUHU21623XXSP,2013-03-23 11:28:00,
2013-03-23 07:33:00,22.5,5.4,29.74,North,0,0.0,0.0,48,0.00,,,0.00,WUHU21623XXSP,2013-03-23 11:33:00,
2013-03-23 07:38:00,22.6,5.5,29.74,North,0,0.0,0.0,48,0.00,,,0.00,WUHU21623XXSP,2013-03-23 11:38:00,
2013-03-23 07:43:00,22.8,5.7,29.74,North,0,0.0,0.0,48,0.00,,,0.00,WUHU21623XXSP,2013-03-23 11:43:00,
2013-03-23 07:48:00,23.2,8.3,29.74,North,0,0.0,0.0,53,0.00,,,0.00,WUHU21623XXSP,2013-03-23 11:48:00,
2013-03-23 07:53:00,23.4,7.4,29.74,North,0,0.0,0.0,50,0.00,,,0.00,WUHU21623XXSP,2013-03-23 11:53:00,
2013-03-23 07:58:00,23.5,7.5,29.75,North,0,0.0,0.0,50,0.00,,,0.00,WUHU21623XXSP,2013-03-23 11:58:00,
2013-03-23 08:03:00,23.9,9.0,29.75,North,0,0.0,0.0,53,0.00,,,0.00,WUHU21623XXSP,2013-03-23 12:03:00,
2013-03-23 08:08:00,24.3,10.4,29.75,North,0,0.0,0.0,55,0.00,,,0.00,WUHU21623XXSP,2013-03-23 12:08:00,
2013-03-23 08:14:00,24.6,10.7,29.75,North,0,0.0,0.0,55,0.00,,,0.00,WUHU21623XXSP,2013-03-23 12:14:00,
2013-03-23 08:19:00,25.0,11.1,29.75,North,0,0.0,0.0,55,0.00,,,0.00,WUHU21623XXSP,2013-03-23 12:19:00,
2013-03-23 08:24:00,25.2,10.2,29.75,North,0,0.0,0.0,53,0.00,,,0.00,WUHU21623XXSP,2013-03-23 12:24:00,
2013-03-23 08:29:00,25.7,9.5,29.74,North,0,0.0,0.0,50,0.00,,,0.00,WUHU21623XXSP,2013-03-23 12:29:00,
2013-03-23 08:34:00,26.1,8.7,29.75,North,0,0.0,0.0,48,0.00,,,0.00,WUHU21623XXSP,2013-03-23 12:34:00,
2013-03-23 08:39:00,26.4,9.0,29.75,North,0,0.0,0.0,48,0.00,,,0.00,WUHU21623XXSP,2013-03-23 12:39:00,
2013-03-23 08:44:00,26.8,9.4,29.75,North,0,0.0,0.0,48,0.00,,,0.00,WUHU21623XXSP,2013-03-23 12:44:00,
2013-03-23 08:49:00,27.0,9.6,29.75,North,0,0.0,0.0,48,0.00,,,0.00,WUHU21623XXSP,2013-03-23 12:49:00,
2013-03-23 08:54:00,27.5,10.0,29.75,North,0,2.9,2.9,48,0.00,,,0.00,WUHU21623XXSP,2013-03-23 12:54:00,
2013-03-23 08:59:00,27.9,10.4,29.75,NNW,337,1.7,4.5,48,0.00,,,0.00,WUHU21623XXSP,2013-03-23 12:59:00,
2013-03-23 09:04:00,28.0,10.5,29.75,North,8,2.2,57.0,48,0.00,,,0.00,WUHU21623XXSP,2013-03-23 13:04:00,
2013-03-23 09:09:00,28.6,11.0,29.75,North,357,9.8,57.0,48,0.00,,,0.00,WUHU21623XXSP,2013-03-23 13:09:00,
2013-03-23 09:14:00,28.6,11.0,29.75,North,357,9.3,57.0,48,0.00,,,0.00,WUHU21623XXSP,2013-03-23 13:14:00,
2013-03-23 09:19:00,28.6,11.0,29.75,North,0,7.0,57.0,48,0.00,,,0.00,WUHU21623XXSP,2013-03-23 13:19:00,
2013-03-23 09:24:00,28.6,11.0,29.76,North,0,10.9,57.0,48,0.00,,,0.00,WUHU21623XXSP,2013-03-23 13:24:00,
2013-03-23 09:29:00,28.6,11.0,29.76,North,350,3.2,57.0,48,0.00,,,0.00,WUHU21623XXSP,2013-03-23 13:29:00,
2013-03-23 09:34:00,28.6,11.0,29.76,NNE,29,1.6,57.0,48,0.00,,,0.00,WUHU21623XXSP,2013-03-23 13:34:00,
2013-03-23 09:39:00,28.8,11.2,29.76,North,358,16.5,57.0,48,0.00,,,0.00,WUHU21623XXSP,2013-03-23 13:39:00,
2013-03-23 09:44:00,28.9,11.3,29.76,North,0,1.4,57.0,48,0.00,,,0.00,WUHU21623XXSP,2013-03-23 13:44:00,
2013-03-23 09:49:00,28.9,11.3,29.76,NNW,337,2.0,57.0,48,0.00,,,0.00,WUHU21623XXSP,2013-03-23 13:49:00,
2013-03-23 09:54:00,29.1,11.5,29.76,NNW,337,3.8,57.0,48,0.00,,,0.00,WUHU21623XXSP,2013-03-23 13:54:00,
2013-03-23 09:59:00,29.3,11.7,29.76,NNW,335,3.5,5.8,48,0.00,,,0.00,WUHU21623XXSP,2013-03-23 13:59:00,
2013-03-23 10:04:00,29.7,12.1,29.76,North,356,2.6,5.4,48,0.00,,,0.00,WUHU21623XXSP,2013-03-23 14:04:00,
2013-03-23 10:09:00,29.8,12.2,29.76,North,0,2.5,57.0,48,0.00,,,0.00,WUHU21623XXSP,2013-03-23 14:09:00,
2013-03-23 10:14:00,30.0,12.3,29.77,North,356,10.2,57.0,48,0.00,,,0.00,WUHU21623XXSP,2013-03-23 14:14:00,
2013-03-23 10:19:00,29.8,12.2,29.77,North,352,7.1,57.0,48,0.00,,,0.00,WUHU21623XXSP,2013-03-23 14:19:00,
2013-03-23 10:24:00,30.4,12.7,29.76,North,354,3.6,57.0,48,0.00,,,0.00,WUHU21623XXSP,2013-03-23 14:24:00,
2013-03-23 10:29:00,31.1,13.3,29.77,North,0,57.0,57.0,48,0.00,,,0.00,WUHU21623XXSP,2013-03-23 14:29:00,
2013-03-23 10:34:00,32.2,14.4,29.77,North,358,12.3,57.0,48,0.00,,,0.00,WUHU21623XXSP,2013-03-23 14:34:00,
2013-03-23 10:39:00,32.4,14.5,29.77,NNW,334,3.2,57.0,48,0.00,,,0.00,WUHU21623XXSP,2013-03-23 14:39:00,
2013-03-23 10:44:00,32.5,14.6,29.77,North,0,7.2,57.0,48,0.00,,,0.00,WUHU21623XXSP,2013-03-23 14:44:00,
2013-03-23 10:49:00,32.7,14.8,29.77,North,0,19.1,57.0,48,0.00,,,0.00,WUHU21623XXSP,2013-03-23 14:49:00,
2013-03-23 10:54:00,32.5,14.6,29.77,North,356,8.1,57.0,48,0.00,,,0.00,WUHU21623XXSP,2013-03-23 14:54:00,
2013-03-23 10:59:00,32.9,15.0,29.77,NW,315,0.9,57.0,48,0.00,,,0.00,WUHU21623XXSP,2013-03-23 14:59:00,
2013-03-23 11:04:00,33.4,15.5,29.77,WNW,292,1.6,57.0,48,0.00,,,0.00,WUHU21623XXSP,2013-03-23 15:04:00,
2013-03-23 11:09:00,34.0,16.0,29.77,NNW,337,4.3,57.0,48,0.00,,,0.00,WUHU21623XXSP,2013-03-23 15:09:00,
2013-03-23 11:14:00,33.6,15.7,29.77,North,0,57.0,57.0,48,0.00,,,0.00,WUHU21623XXSP,2013-03-23 15:14:00,
2013-03-23 11:20:00,33.8,15.8,29.77,North,5,10.5,57.0,48,0.00,,,0.00,WUHU21623XXSP,2013-03-23 15:20:00,
2013-03-23 11:25:00,33.4,15.5,29.77,North,357,7.7,57.0,48,0.00,,,0.00,WUHU21623XXSP,2013-03-23 15:25:00,
2013-03-23 11:30:00,33.8,15.8,29.77,North,359,20.3,57.0,48,0.00,,,0.00,WUHU21623XXSP,2013-03-23 15:30:00,
2013-03-23 11:35:00,34.2,16.2,29.77,NW,315,2.5,57.0,48,0.00,,,0.00,WUHU21623XXSP,2013-03-23 15:35:00,
2013-03-23 11:40:00,34.2,16.2,29.77,North,0,57.0,57.0,48,0.00,,,0.00,WUHU21623XXSP,2013-03-23 15:40:00,
2013-03-23 11:45:00,34.5,16.5,29.77,North,0,57.0,57.0,48,0.00,,,0.00,WUHU21623XXSP,2013-03-23 15:45:00,
2013-03-23 11:50:00,34.7,16.7,29.77,North,0,2.1,57.0,48,0.00,,,0.00,WUHU21623XXSP,2013-03-23 15:50:00,
2013-03-23 11:55:00,34.7,16.7,29.77,NNW,343,2.5,4.3,48,0.00,,,0.00,WUHU21623XXSP,2013-03-23 15:55:00,
2013-03-23 12:00:00,34.9,16.8,29.77,WSW,247,0.0,57.0,48,0.00,,,0.00,WUHU21623XXSP,2013-03-23 16:00:00,
2013-03-23 12:05:00,35.2,17.1,29.77,NW,315,2.7,57.0,48,0.00,,,0.00,WUHU21623XXSP,2013-03-23 16:05:00,
2013-03-23 12:10:00,35.2,17.1,29.77,North,0,57.0,57.0,48,0.00,,,0.00,WUHU21623XXSP,2013-03-23 16:10:00,
2013-03-23 12:15:00,35.2,17.1,29.76,NNW,337,2.7,57.0,48,0.00,,,0.00,WUHU21623XXSP,2013-03-23 16:15:00,
2013-03-23 12:20:00,35.4,17.3,29.77,NE,39,1.1,57.0,48,0.00,,,0.00,WUHU21623XXSP,2013-03-23 16:20:00,
2013-03-23 12:25:00,36.1,18.0,29.76,North,0,57.0,57.0,48,0.00,,,0.00,WUHU21623XXSP,2013-03-23 16:25:00,
2013-03-23 12:30:00,36.0,17.9,29.76,North,354,8.4,57.0,48,0.00,,,0.00,WUHU21623XXSP,2013-03-23 16:30:00,
2013-03-23 12:35:00,35.8,17.7,29.76,North,1,29.1,57.0,48,0.00,,,0.00,WUHU21623XXSP,2013-03-23 16:35:00,
2013-03-23 12:40:00,35.8,17.7,29.76,North,353,2.2,57.0,48,0.00,,,0.00,WUHU21623XXSP,2013-03-23 16:40:00,
2013-03-23 12:45:00,36.0,17.9,29.76,NNW,346,9.2,57.0,48,0.00,,,0.00,WUHU21623XXSP,2013-03-23 16:45:00,
2013-03-23 12:50:00,36.1,18.0,29.77,West,270,1.1,57.0,48,0.00,,,0.00,WUHU21623XXSP,2013-03-23 16:50:00,
2013-03-23 12:55:00,36.1,18.0,29.77,ENE,67,0.0,57.0,48,0.00,,,0.00,WUHU21623XXSP,2013-03-23 16:55:00,
2013-03-23 13:00:00,35.4,17.3,29.77,NNW,348,2.7,4.7,48,0.00,,,0.00,WUHU21623XXSP,2013-03-23 17:00:00,
2013-03-23 13:05:00,35.6,17.5,29.77,NNW,337,1.8,57.0,48,0.00,,,0.00,WUHU21623XXSP,2013-03-23 17:05:00,
2013-03-23 13:10:00,36.0,17.9,29.77,NNW,337,0.0,57.0,48,0.00,,,0.00,WUHU21623XXSP,2013-03-23 17:10:00,
2013-03-23 13:15:00,36.5,18.3,29.77,North,355,6.8,57.0,48,0.00,,,0.00,WUHU21623XXSP,2013-03-23 17:15:00,
2013-03-23 13:20:00,36.7,18.5,29.77,NNW,344,8.5,57.0,48,0.00,,,0.00,WUHU21623XXSP,2013-03-23 17:20:00,
2013-03-23 13:25:00,37.0,18.8,29.76,NW,315,0.0,57.0,48,0.00,,,0.00,WUHU21623XXSP,2013-03-23 17:25:00,
2013-03-23 13:30:00,37.2,19.0,29.76,North,355,8.2,57.0,48,0.00,,,0.00,WUHU21623XXSP,2013-03-23 17:30:00,
2013-03-23 13:35:00,37.4,19.2,29.76,North,358,10.8,57.0,48,0.00,,,0.00,WUHU21623XXSP,2013-03-23 17:35:00,
2013-03-23 13:40:00,37.0,18.8,29.76,NNW,343,2.6,57.0,48,0.00,,,0.00,WUHU21623XXSP,2013-03-23 17:40:00,
2013-03-23 13:45:00,36.9,18.7,29.76,WNW,292,1.6,57.0,48,0.00,,,0.00,WUHU21623XXSP,2013-03-23 17:45:00,
2013-03-23 13:50:00,37.6,19.3,29.76,WNW,290,1.6,57.0,48,0.00,,,0.00,WUHU21623XXSP,2013-03-23 17:50:00,
2013-03-23 13:55:00,38.1,19.8,29.76,NNW,327,2.0,57.0,48,0.00,,,0.00,WUHU21623XXSP,2013-03-23 17:55:00,
2013-03-23 14:00:00,37.8,19.5,29.76,NNW,327,2.4,57.0,48,0.00,,,0.00,WUHU21623XXSP,2013-03-23 18:00:00,
2013-03-23 14:06:00,37.9,19.6,29.76,North,349,6.6,57.0,48,0.00,,,0.00,WUHU21623XXSP,2013-03-23 18:06:00,
2013-03-23 14:11:00,38.1,19.8,29.76,WNW,292,3.6,57.0,48,0.00,,,0.00,WUHU21623XXSP,2013-03-23 18:11:00,
2013-03-23 14:16:00,38.8,20.4,29.76,WSW,247,1.8,57.0,48,0.00,,,0.00,WUHU21623XXSP,2013-03-23 18:16:00,
2013-03-23 14:21:00,39.4,21.0,29.75,WSW,247,0.0,57.0,48,0.00,,,0.00,WUHU21623XXSP,2013-03-23 18:21:00,
2013-03-23 14:26:00,38.8,20.4,29.75,North,0,57.0,57.0,48,0.00,,,0.00,WUHU21623XXSP,2013-03-23 18:26:00,
2013-03-23 14:31:00,38.7,20.3,29.75,WNW,294,2.8,57.0,48,0.00,,,0.00,WUHU21623XXSP,2013-03-23 18:31:00,
2013-03-23 14:36:00,38.1,19.8,29.75,North,352,13.2,57.0,48,0.00,,,0.00,WUHU21623XXSP,2013-03-23 18:36:00,
2013-03-23 14:41:00,38.1,19.8,29.75,NNW,346,7.5,57.0,48,0.00,,,0.00,WUHU21623XXSP,2013-03-23 18:41:00,
2013-03-23 14:46:00,39.2,20.8,29.75,North,0,57.0,57.0,48,0.00,,,0.00,WUHU21623XXSP,2013-03-23 18:46:00,
2013-03-23 14:51:00,38.8,20.4,29.74,WNW,292,4.5,57.0,48,0.00,,,0.00,WUHU21623XXSP,2013-03-23 18:51:00,
2013-03-23 14:57:00,38.8,20.4,29.74,NW,306,3.1,57.0,48,0.00,,,0.00,WUHU21623XXSP,2013-03-23 18:57:00,
2013-03-23 15:02:00,37.2,19.0,29.74,NNW,347,7.3,57.0,48,0.00,,,0.00,WUHU21623XXSP,2013-03-23 19:02:00,
2013-03-23 15:07:00,37.0,18.8,29.74,NNW,343,3.0,57.0,48,0.00,,,0.00,WUHU21623XXSP,2013-03-23 19:07:00,
2013-03-23 15:12:00,37.2,19.0,29.74,North,0,57.0,57.0,48,0.00,,,0.00,WUHU21623XXSP,2013-03-23 19:12:00,
2013-03-23 15:17:00,38.1,19.8,29.73,North,359,9.0,57.0,48,0.00,,,0.00,WUHU21623XXSP,2013-03-23 19:17:00,
2013-03-23 15:22:00,38.1,19.8,29.73,North,0,57.0,57.0,48,0.00,,,0.00,WUHU21623XXSP,2013-03-23 19:22:00,
2013-03-23 15:27:00,37.8,19.5,29.74,NNW,337,4.7,57.0,48,0.00,,,0.00,WUHU21623XXSP,2013-03-23 19:27:00,
2013-03-23 15:32:00,37.9,19.6,29.74,WSW,251,2.5,57.0,48,0.00,,,0.00,WUHU21623XXSP,2013-03-23 19:32:00,
2013-03-23 15:37:00,37.0,18.8,29.74,North,352,6.4,57.0,48,0.00,,,0.00,WUHU21623XXSP,2013-03-23 19:37:00,
2013-03-23 15:42:00,36.9,18.7,29.73,North,350,7.1,57.0,48,0.00,,,0.00,WUHU21623XXSP,2013-03-23 19:42:00,
2013-03-23 15:47:00,37.9,19.6,29.72,North,350,2.9,57.0,48,0.00,,,0.00,WUHU21623XXSP,2013-03-23 19:47:00,
2013-03-23 15:52:00,37.2,19.0,29.72,North,11,8.1,57.0,48,0.00,,,0.00,WUHU21623XXSP,2013-03-23 19:52:00,
2013-03-23 15:57:00,36.3,18.1,29.72,North,0,57.0,57.0,48,0.00,,,0.00,WUHU21623XXSP,2013-03-23 19:57:00,
2013-03-23 16:02:00,36.5,18.3,29.72,North,0,1.1,57.0,48,0.00,,,0.00,WUHU21623XXSP,2013-03-23 20:02:00,
2013-03-23 16:07:00,36.9,18.7,29.73,North,358,9.2,57.0,48,0.00,,,0.00,WUHU21623XXSP,2013-03-23 20:07:00,
2013-03-23 16:12:00,36.9,18.7,29.73,NNW,337,3.4,57.0,48,0.00,,,0.00,WUHU21623XXSP,2013-03-23 20:12:00,
2013-03-23 16:17:00,37.2,19.0,29.72,East,90,0.0,57.0,48,0.00,,,0.00,WUHU21623XXSP,2013-03-23 20:17:00,
2013-03-23 16:22:00,38.8,20.4,29.73,NNW,340,2.5,7.4,48,0.00,,,0.00,WUHU21623XXSP,2013-03-23 20:22:00,
2013-03-23 16:27:00,39.4,21.0,29.72,North,354,8.4,57.0,48,0.00,,,0.00,WUHU21623XXSP,2013-03-23 20:27:00,
2013-03-23 16:32:00,39.2,20.8,29.72,North,7,2.4,57.0,48,0.00,,,0.00,WUHU21623XXSP,2013-03-23 20:32:00,
2013-03-23 16:37:00,37.9,19.6,29.72,North,0,4.3,4.9,48,0.00,,,0.00,WUHU21623XXSP,2013-03-23 20:37:00,
2013-03-23 16:42:00,36.7,18.5,29.72,North,359,11.7,57.0,48,0.00,,,0.00,WUHU21623XXSP,2013-03-23 20:42:00,
2013-03-23 16:48:00,36.0,17.9,29.73,NNW,337,2.8,57.0,48,0.00,,,0.00,WUHU21623XXSP,2013-03-23 20:48:00,
2013-03-23 16:53:00,35.4,17.3,29.73,NNW,332,2.1,3.8,48,0.00,,,0.00,WUHU21623XXSP,2013-03-23 20:53:00,
2013-03-23 16:58:00,35.8,17.7,29.73,WSW,247,1.7,3.8,48,0.00,,,0.00,WUHU21623XXSP,2013-03-23 20:58:00,
2013-03-23 17:03:00,36.5,18.3,29.73,West,270,0.9,2.7,48,0.00,,,0.00,WUHU21623XXSP,2013-03-23 21:03:00,
2013-03-23 17:08:00,37.2,19.0,29.74,NW,319,2.1,3.6,48,0.00,,,0.00,WUHU21623XXSP,2013-03-23 21:08:00,
2013-03-23 17:13:00,37.9,19.6,29.73,WSW,254,2.0,4.5,48,0.00,,,0.00,WUHU21623XXSP,2013-03-23 21:13:00,
2013-03-23 17:18:00,37.8,19.5,29.72,WNW,292,2.0,57.0,48,0.00,,,0.00,WUHU21623XXSP,2013-03-23 21:18:00,
2013-03-23 17:23:00,37.6,19.3,29.73,North,352,9.4,57.0,48,0.00,,,0.00,WUHU21623XXSP,2013-03-23 21:23:00,
2013-03-23 17:28:00,37.6,19.3,29.72,ESE,113,2.2,57.0,48,0.00,,,0.00,WUHU21623XXSP,2013-03-23 21:28:00,
2013-03-23 17:33:00,37.2,19.0,29.73,WNW,292,2.9,7.2,48,0.00,,,0.00,WUHU21623XXSP,2013-03-23 21:33:00,
2013-03-23 17:38:00,37.4,19.2,29.73,NNW,337,3.1,57.0,48,0.00,,,0.00,WUHU21623XXSP,2013-03-23 21:38:00,
2013-03-23 17:43:00,37.2,19.0,29.74,North,0,16.6,57.0,48,0.00,,,0.00,WUHU21623XXSP,2013-03-23 21:43:00,
2013-03-23 17:48:00,37.2,19.0,29.74,North,0,0.0,57.0,48,0.00,,,0.00,WUHU21623XXSP,2013-03-23 21:48:00,
2013-03-23 17:53:00,36.9,18.7,29.74,WSW,247,3.4,57.0,48,0.00,,,0.00,WUHU21623XXSP,2013-03-23 21:53:00,
2013-03-23 17:58:00,36.7,18.5,29.74,North,355,8.9,57.0,48,0.00,,,0.00,WUHU21623XXSP,2013-03-23 21:58:00,
2013-03-23 18:03:00,36.3,18.1,29.73,North,357,12.8,57.0,48,0.00,,,0.00,WUHU21623XXSP,2013-03-23 22:03:00,
2013-03-23 18:08:00,36.3,18.1,29.73,NNW,346,3.2,57.0,48,0.00,,,0.00,WUHU21623XXSP,2013-03-23 22:08:00,
2013-03-23 18:13:00,36.3,18.1,29.72,NNW,337,3.1,6.7,48,0.00,,,0.00,WUHU21623XXSP,2013-03-23 22:13:00,
2013-03-23 18:18:00,35.8,17.7,29.72,North,357,12.3,57.0,48,0.00,,,0.00,WUHU21623XXSP,2013-03-23 22:18:00,
2013-03-23 18:23:00,35.6,17.5,29.72,North,0,2.9,57.0,48,0.00,,,0.00,WUHU21623XXSP,2013-03-23 22:23:00,
2013-03-23 18:28:00,35.2,17.1,29.72,North,351,10.0,57.0,48,0.00,,,0.00,WUHU21623XXSP,2013-03-23 22:28:00,
2013-03-23 18:33:00,34.9,16.8,29.72,North,357,11.9,57.0,48,0.00,,,0.00,WUHU21623XXSP,2013-03-23 22:33:00,
2013-03-23 18:38:00,34.7,16.7,29.73,North,355,2.4,57.0,48,0.00,,,0.00,WUHU21623XXSP,2013-03-23 22:38:00,
2013-03-23 18:43:00,34.3,16.3,29.73,NNW,347,3.3,57.0,48,0.00,,,0.00,WUHU21623XXSP,2013-03-23 22:43:00,
2013-03-23 18:48:00,34.2,16.2,29.72,North,0,4.9,57.0,48,0.00,,,0.00,WUHU21623XXSP,2013-03-23 22:48:00,
2013-03-23 18:53:00,34.0,16.0,29.72,North,355,8.2,57.0,48,0.00,,,0.00,WUHU21623XXSP,2013-03-23 22:53:00,
2013-03-23 18:58:00,33.6,15.7,29.73,NNW,337,2.0,57.0,48,0.00,,,0.00,WUHU21623XXSP,2013-03-23 22:58:00,
2013-03-23 19:03:00,34.0,16.0,29.72,NNW,337,4.0,57.0,48,0.00,,,0.00,WUHU21623XXSP,2013-03-23 23:03:00,
2013-03-23 19:08:00,33.6,15.7,29.72,North,0,3.3,6.5,48,0.00,,,0.00,WUHU21623XXSP,2013-03-23 23:08:00,
2013-03-23 19:13:00,33.6,15.7,29.73,North,0,1.6,6.5,48,0.00,,,0.00,WUHU21623XXSP,2013-03-23 23:13:00,
2013-03-23 19:18:00,33.6,15.7,29.72,NNW,337,1.6,5.4,48,0.00,,,0.00,WUHU21623XXSP,2013-03-23 23:18:00,
2013-03-23 19:23:00,33.4,15.5,29.72,North,358,15.7,57.0,48,0.00,,,0.00,WUHU21623XXSP,2013-03-23 23:23:00,
2013-03-23 19:28:00,33.1,15.2,29.73,NNW,337,1.8,57.0,48,0.00,,,0.00,WUHU21623XXSP,2013-03-23 23:28:00,
2013-03-23 19:33:00,32.7,14.8,29.72,North,354,2.2,57.0,48,0.00,,,0.00,WUHU21623XXSP,2013-03-23 23:33:00,
2013-03-23 19:38:00,32.4,14.5,29.72,North,353,2.4,4.9,48,0.00,,,0.00,WUHU21623XXSP,2013-03-23 23:38:00,
2013-03-23 19:44:00,32.2,14.4,29.73,North,357,13.4,57.0,48,0.00,,,0.00,WUHU21623XXSP,2013-03-23 23:44:00,
2013-03-23 19:49:00,31.6,13.8,29.73,North,0,57.0,57.0,48,0.00,,,0.00,WUHU21623XXSP,2013-03-23 23:49:00,
2013-03-23 19:54:00,31.1,13.3,29.74,North,0,57.0,57.0,48,0.00,,,0.00,WUHU21623XXSP,2013-03-23 23:54:00,
2013-03-23 19:59:00,30.7,13.0,29.74,NNW,337,0.0,57.0,48,0.00,,,0.00,WUHU21623XXSP,2013-03-23 23:59:00,
2013-03-23 20:04:00,30.4,12.7,29.73,North,357,10.9,57.0,48,0.00,,,0.00,WUHU21623XXSP,2013-03-24 00:04:00,
2013-03-23 20:09:00,30.4,12.7,29.73,NNW,337,1.7,57.0,48,0.00,,,0.00,WUHU21623XXSP,2013-03-24 00:09:00,
2013-03-23 20:14:00,30.0,12.3,29.73,North,355,5.9,57.0,48,0.00,,,0.00,WUHU21623XXSP,2013-03-24 00:14:00,
2013-03-23 20:19:00,29.8,12.2,29.73,NNW,337,1.5,57.0,48,0.00,,,0.00,WUHU21623XXSP,2013-03-24 00:19:00,
2013-03-23 20:24:00,29.5,11.9,29.73,North,0,29.1,57.0,48,0.00,,,0.00,WUHU21623XXSP,2013-03-24 00:24:00,
2013-03-23 20:29:00,29.1,11.5,29.73,North,0,57.0,57.0,48,0.00,,,0.00,WUHU21623XXSP,2013-03-24 00:29:00,
2013-03-23 20:34:00,29.1,11.5,29.73,North,0,1.8,57.0,48,0.00,,,0.00,WUHU21623XXSP,2013-03-24 00:34:00,
2013-03-23 20:39:00,29.1,11.5,29.73,NNW,348,1.8,57.0,48,0.00,,,0.00,WUHU21623XXSP,2013-03-24 00:39:00,
2013-03-23 20:44:00,28.8,11.2,29.74,North,0,0.0,57.0,48,0.00,,,0.00,WUHU21623XXSP,2013-03-24 00:44:00,
2013-03-23 20:49:00,28.6,11.0,29.74,North,0,1.0,1.3,48,0.00,,,0.00,WUHU21623XXSP,2013-03-24 00:49:00,
2013-03-23 20:54:00,28.0,10.5,29.74,North,0,1.0,1.1,48,0.00,,,0.00,WUHU21623XXSP,2013-03-24 00:54:00,
2013-03-23 20:59:00,27.9,10.4,29.74,NNW,337,0.0,1.0,48,0.00,,,0.00,WUHU21623XXSP,2013-03-24 00:59:00,
2013-03-23 21:04:00,27.5,10.0,29.74,North,0,1.0,1.0,48,0.00,,,0.00,WUHU21623XXSP,2013-03-24 01:04:00,
2013-03-23 21:09:00,27.3,9.8,29.75,North,0,1.1,1.1,48,0.00,,,0.00,WUHU21623XXSP,2013-03-24 01:09:00,
2013-03-23 21:14:00,27.1,9.7,29.74,North,0,0.0,1.1,48,0.00,,,0.00,WUHU21623XXSP,2013-03-24 01:14:00,
2013-03-23 21:19:00,27.0,9.6,29.75,North,0,0.0,0.0,48,0.00,,,0.00,WUHU21623XXSP,2013-03-24 01:19:00,
2013-03-23 21:25:00,26.8,9.4,29.75,North,0,0.0,0.0,48,0.00,,,0.00,WUHU21623XXSP,2013-03-24 01:25:00,
2013-03-23 21:30:00,26.2,8.8,29.75,North,0,0.0,0.0,48,0.00,,,0.00,WUHU21623XXSP,2013-03-24 01:30:00,
2013-03-23 21:35:00,25.9,8.6,29.75,North,0,0.0,0.0,48,0.00,,,0.00,WUHU21623XXSP,2013-03-24 01:35:00,
2013-03-23 21:40:00,25.7,8.4,29.75,North,0,0.0,0.0,48,0.00,,,0.00,WUHU21623XXSP,2013-03-24 01:40:00,
2013-03-23 21:45:00,25.5,8.2,29.75,North,0,0.0,0.0,48,0.00,,,0.00,WUHU21623XXSP,2013-03-24 01:45:00,
2013-03-23 21:50:00,25.2,7.9,29.76,North,0,0.0,0.0,48,0.00,,,0.00,WUHU21623XXSP,2013-03-24 01:50:00,
2013-03-23 21:55:00,25.0,7.7,29.76,North,0,0.0,0.0,48,0.00,,,0.00,WUHU21623XXSP,2013-03-24 01:55:00,
2013-03-23 22:00:00,24.8,7.5,29.76,North,0,0.0,0.0,48,0.00,,,0.00,WUHU21623XXSP,2013-03-24 02:00:00,
2013-03-23 22:05:00,24.6,7.4,29.76,North,0,0.0,0.0,48,0.00,,,0.00,WUHU21623XXSP,2013-03-24 02:05:00,
2013-03-23 22:10:00,24.4,7.2,29.76,North,0,0.0,0.0,48,0.00,,,0.00,WUHU21623XXSP,2013-03-24 02:10:00,
2013-03-23 22:15:00,24.3,7.1,29.75,North,0,0.0,0.0,48,0.00,,,0.00,WUHU21623XXSP,2013-03-24 02:15:00,
2013-03-23 22:20:00,24.1,6.9,29.74,North,0,0.0,0.0,48,0.00,,,0.00,WUHU21623XXSP,2013-03-24 02:20:00,
2013-03-23 22:25:00,24.1,6.9,29.75,North,0,0.0,0.0,48,0.00,,,0.00,WUHU21623XXSP,2013-03-24 02:25:00,
2013-03-23 22:30:00,24.1,6.9,29.75,North,0,0.0,0.0,48,0.00,,,0.00,WUHU21623XXSP,2013-03-24 02:30:00,
2013-03-23 22:35:00,24.1,6.9,29.75,North,0,0.0,0.0,48,0.00,,,0.00,WUHU21623XXSP,2013-03-24 02:35:00,
2013-03-23 22:40:00,23.9,6.7,29.75,North,0,0.0,0.0,48,0.00,,,0.00,WUHU21623XXSP,2013-03-24 02:40:00,
2013-03-23 22:45:00,23.7,6.5,29.75,North,0,0.0,0.0,48,0.00,,,0.00,WUHU21623XXSP,2013-03-24 02:45:00,
2013-03-23 22:50:00,23.7,6.5,29.75,North,0,0.0,0.0,48,0.00,,,0.00,WUHU21623XXSP,2013-03-24 02:50:00,
2013-03-23 22:55:00,23.7,6.5,29.75,North,0,0.0,0.0,48,0.00,,,0.00,WUHU21623XXSP,2013-03-24 02:55:00,
2013-03-23 23:00:00,23.5,6.3,29.75,North,0,0.0,0.0,48,0.00,,,0.00,WUHU21623XXSP,2013-03-24 03:00:00,
2013-03-23 23:05:00,23.5,6.3,29.75,North,0,0.0,0.0,48,0.00,,,0.00,WUHU21623XXSP,2013-03-24 03:05:00,
2013-03-23 23:10:00,23.5,6.3,29.75,North,0,0.0,0.0,48,0.00,,,0.00,WUHU21623XXSP,2013-03-24 03:10:00,
2013-03-23 23:15:00,23.5,6.3,29.75,North,0,0.0,0.0,48,0.00,,,0.00,WUHU21623XXSP,2013-03-24 03:15:00,
2013-03-23 23:20:00,23.7,6.5,29.74,North,0,0.0,0.0,48,0.00,,,0.00,WUHU21623XXSP,2013-03-24 03:20:00,
2013-03-23 23:25:00,23.7,6.5,29.75,North,0,0.0,0.0,48,0.00,,,0.00,WUHU21623XXSP,2013-03-24 03:25:00,
2013-03-23 23:30:00,23.5,6.3,29.75,North,0,0.0,0.0,48,0.00,,,0.00,WUHU21623XXSP,2013-03-24 03:30:00,
2013-03-23 23:35:00,23.2,6.1,29.75,North,0,0.0,0.0,48,0.00,,,0.00,WUHU21623XXSP,2013-03-24 03:35:00,
2013-03-23 23:40:00,23.2,6.1,29.75,North,0,0.0,0.0,48,0.00,,,0.00,WUHU21623XXSP,2013-03-24 03:40:00,
2013-03-23 23:46:00,22.6,5.5,29.75,North,0,0.0,0.0,48,0.00,,,0.00,WUHU21623XXSP,2013-03-24 03:46:00,
2013-03-23 23:51:00,22.5,5.4,29.75,North,0,0.0,0.0,48,0.00,,,0.00,WUHU21623XXSP,2013-03-24 03:51:00,
2013-03-23 23:56:00,22.5,5.4,29.75,North,0,0.0,0.0,48,0.00,,,0.00,WUHU21623XXSP,2013-03-24 03:56:00,